createdAt,value
2022-11-13T00:00:59.058Z,77586.81
2022-11-13T00:03:30.533Z,77582.59
2022-11-13T00:06:01.574Z,77578.34
2022-11-13T00:08:29.475Z,77576.22
2022-11-13T00:11:01.640Z,77572.00
2022-11-13T00:13:30.660Z,77569.88
2022-11-13T00:15:59.687Z,77576.22
2022-11-13T00:18:30.342Z,77574.13
2022-11-13T00:20:58.683Z,77565.66
2022-11-13T00:23:26.360Z,77565.66
2022-11-13T00:25:53.992Z,77574.13
2022-11-13T00:28:21.629Z,77569.88
2022-11-13T00:30:49.243Z,77569.88
2022-11-13T00:33:37.985Z,77574.13
2022-11-13T00:36:07.263Z,77593.16
2022-11-13T00:38:35.300Z,77612.22
2022-11-13T00:41:03.126Z,77612.22
2022-11-13T00:43:30.798Z,77618.56
2022-11-13T00:45:58.451Z,77622.81
2022-11-13T00:48:26.476Z,77635.50
2022-11-13T00:50:54.385Z,77646.09
2022-11-13T00:53:23.488Z,77646.09
2022-11-13T00:55:51.742Z,77644.00
2022-11-13T00:58:19.643Z,77654.56
2022-11-13T01:00:48.458Z,77658.81
2022-11-13T01:03:17.865Z,77650.34
2022-11-13T01:05:46.795Z,77656.69
2022-11-13T01:08:15.897Z,77650.34
2022-11-13T01:10:53.071Z,77646.09
2022-11-13T01:13:21.314Z,77641.88
2022-11-13T01:15:49.037Z,77646.09
2022-11-13T01:18:16.684Z,77633.41
2022-11-13T01:20:44.315Z,77620.69
2022-11-13T01:23:12.814Z,77601.63
2022-11-13T01:25:40.483Z,77599.53
2022-11-13T01:28:09.566Z,77599.53
2022-11-13T01:30:37.163Z,77620.69
2022-11-13T01:33:04.986Z,77620.69
2022-11-13T01:35:33.479Z,77631.28
2022-11-13T01:38:01.313Z,77620.69
2022-11-13T01:40:28.922Z,77612.22
2022-11-13T01:42:56.554Z,77599.53
2022-11-13T01:46:01.651Z,77599.53
2022-11-13T01:48:35.838Z,77586.81
2022-11-13T01:51:04.741Z,77593.16
2022-11-13T01:53:32.875Z,77582.59
2022-11-13T01:56:00.490Z,77591.06
2022-11-13T01:58:29.002Z,77574.13
2022-11-13T02:00:56.978Z,77578.34
2022-11-13T02:03:24.706Z,77582.59
2022-11-13T02:05:54.555Z,77588.94
2022-11-13T02:08:22.320Z,77595.28
2022-11-13T02:10:50.298Z,77593.16
2022-11-13T02:13:18.427Z,77588.94
2022-11-13T02:15:46.851Z,77597.41
2022-11-13T02:18:14.923Z,77586.81
2022-11-13T02:20:46.747Z,77578.34
2022-11-13T02:23:23.766Z,77586.81
2022-11-13T02:25:54.349Z,77586.81
2022-11-13T02:28:22.175Z,77584.69
2022-11-13T02:30:49.920Z,77586.81
2022-11-13T02:33:26.110Z,77586.81
2022-11-13T02:35:54.450Z,77586.81
2022-11-13T02:38:22.104Z,77597.41
2022-11-13T02:40:49.776Z,77605.88
2022-11-13T02:43:18.983Z,77599.53
2022-11-13T02:45:46.662Z,77620.69
2022-11-13T02:48:14.286Z,77622.81
2022-11-13T02:50:42.410Z,77616.47
2022-11-13T02:53:10.104Z,77620.69
2022-11-13T02:55:37.887Z,77616.47
2022-11-13T02:58:05.858Z,77620.69
2022-11-13T03:00:34.914Z,77618.56
2022-11-13T03:03:02.587Z,77616.47
2022-11-13T03:05:30.311Z,77616.47
2022-11-13T03:07:57.954Z,77605.88
2022-11-13T03:10:25.616Z,77608.00
2022-11-13T03:12:53.314Z,77614.34
2022-11-13T03:15:21.170Z,77608.00
2022-11-13T03:17:50.466Z,77608.00
2022-11-13T03:20:18.465Z,77599.53
2022-11-13T03:22:46.096Z,77608.00
2022-11-13T03:25:13.955Z,77610.09
2022-11-13T03:27:41.704Z,77597.41
2022-11-13T03:30:10.701Z,77593.16
2022-11-13T03:32:38.338Z,77595.28
2022-11-13T03:35:09.195Z,77616.47
2022-11-13T03:37:36.821Z,77614.34
2022-11-13T03:40:05.042Z,77599.53
2022-11-13T03:42:32.769Z,77599.53
2022-11-13T03:45:00.405Z,77593.16
2022-11-13T03:47:28.042Z,77601.63
2022-11-13T03:49:55.875Z,77601.63
2022-11-13T03:52:24.946Z,77603.75
2022-11-13T03:54:52.631Z,77595.28
2022-11-13T03:57:20.939Z,77612.22
2022-11-13T03:59:48.853Z,77614.34
2022-11-13T04:02:16.495Z,77620.69
2022-11-13T04:04:44.856Z,77620.69
2022-11-13T04:07:12.917Z,77612.22
2022-11-13T04:09:42.131Z,77605.88
2022-11-13T04:12:09.806Z,77616.47
2022-11-13T04:14:37.805Z,77608.00
2022-11-13T04:17:05.574Z,77608.00
2022-11-13T04:19:33.426Z,77608.00
2022-11-13T04:22:01.385Z,77608.00
2022-11-13T04:24:29.047Z,77608.00
2022-11-13T04:26:58.347Z,77608.00
2022-11-13T04:29:26.039Z,77608.00
2022-11-13T04:31:53.691Z,77608.00
2022-11-13T04:34:21.477Z,77616.47
2022-11-13T04:36:49.138Z,77610.09
2022-11-13T04:39:16.770Z,77610.09
2022-11-13T04:42:02.089Z,77618.56
2022-11-13T04:44:31.198Z,77631.28
2022-11-13T04:46:58.894Z,77627.06
2022-11-13T04:49:26.657Z,77620.69
2022-11-13T04:51:54.584Z,77633.41
2022-11-13T04:54:28.389Z,77650.34
2022-11-13T04:56:56.467Z,77658.81
2022-11-13T04:59:24.569Z,77660.94
2022-11-13T05:01:55.659Z,77658.81
2022-11-13T05:04:23.616Z,77658.81
2022-11-13T05:06:51.303Z,77650.34
2022-11-13T05:09:18.995Z,77650.34
2022-11-13T05:11:46.967Z,77660.94
2022-11-13T05:14:14.937Z,77654.56
2022-11-13T05:16:42.687Z,77646.09
2022-11-13T05:19:11.810Z,77641.88
2022-11-13T05:21:40.225Z,77641.88
2022-11-13T05:24:10.840Z,77635.50
2022-11-13T05:26:38.732Z,77624.94
2022-11-13T05:29:06.637Z,77637.63
2022-11-13T05:31:34.286Z,77648.22
2022-11-13T05:34:05.947Z,77637.63
2022-11-13T05:36:35.724Z,77650.34
2022-11-13T05:39:03.584Z,77652.47
2022-11-13T05:41:31.256Z,77663.03
2022-11-13T05:43:59.927Z,77671.50
2022-11-13T05:46:29.028Z,77675.75
2022-11-13T05:48:57.876Z,77667.28
2022-11-13T05:51:27.317Z,77660.94
2022-11-13T05:53:56.840Z,77658.81
2022-11-13T05:56:26.824Z,77660.94
2022-11-13T05:58:55.711Z,77663.03
2022-11-13T06:01:26.507Z,77660.94
2022-11-13T06:03:55.846Z,77663.03
2022-11-13T06:06:24.758Z,77663.03
2022-11-13T06:08:53.578Z,77669.41
2022-11-13T06:11:25.357Z,77669.41
2022-11-13T06:13:54.244Z,77686.34
2022-11-13T06:16:24.116Z,77688.44
2022-11-13T06:18:52.254Z,77682.09
2022-11-13T06:21:21.658Z,77686.34
2022-11-13T06:23:49.618Z,77690.56
2022-11-13T06:26:19.114Z,77707.50
2022-11-13T06:28:48.647Z,77722.34
2022-11-13T06:31:18.766Z,77730.81
2022-11-13T06:33:46.857Z,77722.34
2022-11-13T06:36:16.260Z,77728.69
2022-11-13T06:38:44.239Z,77726.56
2022-11-13T06:41:14.438Z,77728.69
2022-11-13T06:43:42.466Z,77722.34
2022-11-13T06:46:14.648Z,77713.84
2022-11-13T06:48:42.478Z,77713.84
2022-11-13T06:51:16.377Z,77724.44
2022-11-13T06:53:44.141Z,77720.22
2022-11-13T06:56:12.470Z,77737.16
2022-11-13T06:58:40.601Z,77739.28
2022-11-13T07:01:09.126Z,77730.81
2022-11-13T07:03:38.658Z,77730.81
2022-11-13T07:06:08.531Z,77737.16
2022-11-13T07:08:37.096Z,77747.75
2022-11-13T07:11:04.792Z,77751.97
2022-11-13T07:13:32.570Z,77758.31
2022-11-13T07:16:09.349Z,77743.50
2022-11-13T07:18:44.894Z,77743.50
2022-11-13T07:21:13.946Z,77747.75
2022-11-13T07:23:43.723Z,77751.97
2022-11-13T07:26:12.369Z,77735.03
2022-11-13T07:28:40.480Z,77735.03
2022-11-13T07:31:08.715Z,77737.16
2022-11-13T07:33:36.430Z,77737.16
2022-11-13T07:36:06.567Z,77730.81
2022-11-13T07:38:34.194Z,77728.69
2022-11-13T07:41:02.429Z,77726.56
2022-11-13T07:43:30.609Z,77720.22
2022-11-13T07:45:59.164Z,77715.97
2022-11-13T07:48:28.632Z,77713.84
2022-11-13T07:51:00.503Z,77720.22
2022-11-13T07:53:29.770Z,77720.22
2022-11-13T07:55:57.487Z,77709.63
2022-11-13T07:58:25.524Z,77715.97
2022-11-13T08:00:53.635Z,77705.38
2022-11-13T08:03:21.728Z,77711.75
2022-11-13T08:05:49.487Z,77705.38
2022-11-13T08:08:17.454Z,77703.28
2022-11-13T08:10:47.174Z,77703.28
2022-11-13T08:13:14.946Z,77692.69
2022-11-13T08:15:43.065Z,77703.28
2022-11-13T08:18:10.921Z,77701.16
2022-11-13T08:20:38.771Z,77696.91
2022-11-13T08:23:06.786Z,77709.63
2022-11-13T08:25:36.654Z,77705.38
2022-11-13T08:28:10.125Z,77692.69
2022-11-13T08:30:40.776Z,77686.34
2022-11-13T08:33:08.664Z,77701.16
2022-11-13T08:35:36.500Z,77696.91
2022-11-13T08:38:05.564Z,77675.75
2022-11-13T08:40:33.892Z,77688.44
2022-11-13T08:43:01.989Z,77692.69
2022-11-13T08:45:31.934Z,77694.81
2022-11-13T08:48:01.463Z,77701.16
2022-11-13T08:50:29.631Z,77696.91
2022-11-13T08:53:01.164Z,77705.38
2022-11-13T08:55:29.159Z,77703.28
2022-11-13T08:57:59.604Z,77707.50
2022-11-13T09:00:28.904Z,77699.03
2022-11-13T09:03:02.299Z,77688.44
2022-11-13T09:05:34.228Z,77679.97
2022-11-13T09:08:07.440Z,77675.75
2022-11-13T09:10:37.222Z,77675.75
2022-11-13T09:13:14.632Z,77684.22
2022-11-13T09:15:42.607Z,77692.69
2022-11-13T09:18:14.005Z,77703.28
2022-11-13T09:20:44.441Z,77675.75
2022-11-13T09:23:12.130Z,77671.50
2022-11-13T09:25:40.081Z,77658.81
2022-11-13T09:28:11.614Z,77650.34
2022-11-13T09:30:40.792Z,77646.09
2022-11-13T09:33:09.115Z,77637.63
2022-11-13T09:35:39.187Z,77633.41
2022-11-13T09:38:11.547Z,77622.81
2022-11-13T09:40:44.086Z,77608.00
2022-11-13T09:43:14.807Z,77601.63
2022-11-13T09:45:42.889Z,77599.53
2022-11-13T09:48:29.244Z,77618.56
2022-11-13T09:51:01.059Z,77614.34
2022-11-13T09:53:31.512Z,77614.34
2022-11-13T09:56:06.315Z,77612.22
2022-11-13T09:59:01.063Z,77603.75
2022-11-13T10:01:34.456Z,77610.09
2022-11-13T10:04:08.886Z,77605.88
2022-11-13T10:06:54.312Z,77610.09
2022-11-13T10:09:26.604Z,77591.06
2022-11-13T10:11:55.584Z,77582.59
2022-11-13T10:14:33.581Z,77595.28
2022-11-13T10:17:05.738Z,77586.81
2022-11-13T10:19:38.941Z,77595.28
2022-11-13T10:22:32.154Z,77591.06
2022-11-13T10:25:08.278Z,77569.88
2022-11-13T10:27:46.321Z,77572.00
2022-11-13T10:30:16.035Z,77584.69
2022-11-13T10:32:44.973Z,77574.13
2022-11-13T10:35:24.698Z,77563.53
2022-11-13T10:38:04.703Z,77561.41
2022-11-13T10:40:36.818Z,77559.28
2022-11-13T10:43:13.283Z,77567.75
2022-11-13T10:45:41.635Z,77565.66
2022-11-13T10:48:20.882Z,77567.75
2022-11-13T10:50:55.520Z,77565.66
2022-11-13T10:53:28.763Z,77559.28
2022-11-13T10:55:58.804Z,77563.53
2022-11-13T10:58:26.984Z,77569.88
2022-11-13T11:00:55.720Z,77567.75
2022-11-13T11:03:25.234Z,77565.66
2022-11-13T11:05:54.602Z,77561.41
2022-11-13T11:08:27.823Z,77574.13
2022-11-13T11:11:16.381Z,77565.66
2022-11-13T11:13:44.733Z,77563.53
2022-11-13T11:16:18.149Z,77550.81
2022-11-13T11:18:54.109Z,77544.47
2022-11-13T11:21:24.710Z,77557.19
2022-11-13T11:23:58.443Z,77555.06
2022-11-13T11:26:31.553Z,77561.41
2022-11-13T11:29:07.956Z,77555.06
2022-11-13T11:31:39.263Z,77544.47
2022-11-13T11:34:18.158Z,77559.28
2022-11-13T11:36:51.363Z,77552.94
2022-11-13T11:39:29.298Z,77546.59
2022-11-13T11:42:02.168Z,77552.94
2022-11-13T11:44:33.594Z,77544.47
2022-11-13T11:47:01.484Z,77529.66
2022-11-13T11:49:29.292Z,77533.88
2022-11-13T11:52:06.179Z,77519.06
2022-11-13T11:54:42.131Z,77527.53
2022-11-13T11:57:23.538Z,77519.06
2022-11-13T12:00:08.342Z,77519.06
2022-11-13T12:02:57.309Z,77512.72
2022-11-13T12:05:40.250Z,77506.38
2022-11-13T12:08:16.334Z,77502.13
2022-11-13T12:10:52.884Z,77502.13
2022-11-13T12:13:29.735Z,77487.31
2022-11-13T12:16:05.952Z,77464.00
2022-11-13T12:18:40.679Z,77455.53
2022-11-13T12:21:23.572Z,77464.00
2022-11-13T12:24:02.709Z,77464.00
2022-11-13T12:26:38.557Z,77466.13
2022-11-13T12:29:14.254Z,77474.59
2022-11-13T12:31:52.759Z,77453.44
2022-11-13T12:34:25.925Z,77444.97
2022-11-13T12:36:54.801Z,77451.31
2022-11-13T12:39:33.659Z,77432.25
2022-11-13T12:42:07.649Z,77440.72
2022-11-13T12:44:43.963Z,77447.06
2022-11-13T12:47:12.031Z,77442.84
2022-11-13T12:49:39.966Z,77459.78
2022-11-13T12:52:19.330Z,77440.72
2022-11-13T12:54:47.001Z,77444.97
2022-11-13T12:57:25.817Z,77453.44
2022-11-13T13:00:01.326Z,77455.53
2022-11-13T13:02:40.571Z,77449.19
2022-11-13T13:05:17.963Z,77444.97
2022-11-13T13:08:04.982Z,77442.84
2022-11-13T13:10:42.365Z,77442.84
2022-11-13T13:13:22.622Z,77434.38
2022-11-13T13:15:56.779Z,77423.78
2022-11-13T13:18:30.541Z,77415.31
2022-11-13T13:21:08.400Z,77430.13
2022-11-13T13:23:38.958Z,77436.50
2022-11-13T13:26:14.317Z,77449.19
2022-11-13T13:28:44.950Z,77447.06
2022-11-13T13:31:33.941Z,77434.38
2022-11-13T13:34:18.718Z,77432.25
2022-11-13T13:36:53.969Z,77451.31
2022-11-13T13:39:38.966Z,77447.06
2022-11-13T13:42:22.190Z,77436.50
2022-11-13T13:45:14.480Z,77440.72
2022-11-13T13:47:45.967Z,77442.84
2022-11-13T13:50:17.023Z,77430.13
2022-11-13T13:52:48.918Z,77436.50
2022-11-13T13:55:26.126Z,77425.91
2022-11-13T13:57:54.288Z,77428.03
2022-11-13T14:00:26.133Z,77430.13
2022-11-13T14:02:55.006Z,77430.13
2022-11-13T14:05:29.465Z,77432.25
2022-11-13T14:07:58.979Z,77434.38
2022-11-13T14:10:29.102Z,77442.84
2022-11-13T14:12:58.151Z,77438.59
2022-11-13T14:15:31.820Z,77436.50
2022-11-13T14:18:08.128Z,77447.06
2022-11-13T14:20:43.295Z,77438.59
2022-11-13T14:23:13.951Z,77440.72
2022-11-13T14:25:42.363Z,77438.59
2022-11-13T14:28:16.249Z,77432.25
2022-11-13T14:30:46.378Z,77442.84
2022-11-13T14:33:18.229Z,77442.84
2022-11-13T14:35:52.485Z,77442.84
2022-11-13T14:38:23.445Z,77449.19
2022-11-13T14:40:51.660Z,77449.19
2022-11-13T14:43:23.850Z,77447.06
2022-11-13T14:45:57.927Z,77442.84
2022-11-13T14:48:27.578Z,77434.38
2022-11-13T14:50:56.773Z,77440.72
2022-11-13T14:53:30.092Z,77442.84
2022-11-13T14:56:01.443Z,77447.06
2022-11-13T14:58:31.517Z,77451.31
2022-11-13T15:01:14.079Z,77451.31
2022-11-13T15:03:42.335Z,77459.78
2022-11-13T15:06:15.548Z,77464.00
2022-11-13T15:08:44.218Z,77468.25
2022-11-13T15:11:14.791Z,77468.25
2022-11-13T15:13:43.067Z,77466.13
2022-11-13T15:16:16.320Z,77472.47
2022-11-13T15:18:47.824Z,77468.25
2022-11-13T15:21:20.328Z,77459.78
2022-11-13T15:23:48.259Z,77461.91
2022-11-13T15:26:16.279Z,77455.53
2022-11-13T15:28:44.554Z,77449.19
2022-11-13T15:31:19.729Z,77438.59
2022-11-13T15:33:48.245Z,77430.13
2022-11-13T15:36:17.097Z,77436.50
2022-11-13T15:38:45.558Z,77438.59
2022-11-13T15:41:16.807Z,77453.44
2022-11-13T15:43:48.013Z,77455.53
2022-11-13T15:46:24.763Z,77461.91
2022-11-13T15:48:57.949Z,77459.78
2022-11-13T15:51:32.820Z,77472.47
2022-11-13T15:54:03.099Z,77468.25
2022-11-13T15:56:31.387Z,77491.53
2022-11-13T15:59:01.501Z,77500.00
2022-11-13T16:01:32.951Z,77483.06
2022-11-13T16:04:02.466Z,77495.78
2022-11-13T16:06:34.014Z,77489.41
2022-11-13T16:09:01.958Z,77485.19
2022-11-13T16:11:32.365Z,77478.84
2022-11-13T16:14:00.487Z,77476.72
2022-11-13T16:16:34.444Z,77472.47
2022-11-13T16:19:04.918Z,77464.00
2022-11-13T16:21:32.836Z,77480.94
2022-11-13T16:24:00.544Z,77485.19
2022-11-13T16:26:28.319Z,77480.94
2022-11-13T16:31:45.572Z,77487.31
2022-11-13T16:34:13.668Z,77485.19
2022-11-13T16:36:41.540Z,77476.72
2022-11-13T16:39:12.355Z,77495.78
2022-11-13T16:41:39.983Z,77489.41
2022-11-13T16:44:07.742Z,77487.31
2022-11-13T16:46:36.985Z,77489.41
2022-11-13T16:49:06.004Z,77485.19
2022-11-13T16:51:33.691Z,77478.84
2022-11-13T16:54:01.314Z,77502.13
2022-11-13T16:56:30.638Z,77495.78
2022-11-13T16:58:59.515Z,77504.25
2022-11-13T17:01:28.170Z,77493.66
2022-11-13T17:03:55.911Z,77487.31
2022-11-13T17:06:29.159Z,77489.41
2022-11-13T17:08:58.505Z,77487.31
2022-11-13T17:11:27.827Z,77485.19
2022-11-13T17:13:58.320Z,77474.59
2022-11-13T17:16:27.674Z,77478.84
2022-11-13T17:18:55.716Z,77483.06
2022-11-13T17:21:24.848Z,77483.06
2022-11-13T17:23:56.947Z,77474.59
2022-11-13T17:26:24.757Z,77480.94
2022-11-13T17:28:53.507Z,77480.94
2022-11-13T17:31:21.859Z,77483.06
2022-11-13T17:33:51.743Z,77489.41
2022-11-13T17:36:19.684Z,77487.31
2022-11-13T17:38:47.297Z,77489.41
2022-11-13T17:41:41.665Z,77493.66
2022-11-13T17:44:12.070Z,77480.94
2022-11-13T17:46:39.842Z,77470.38
2022-11-13T17:49:08.434Z,77474.59
2022-11-13T17:51:36.246Z,77478.84
2022-11-13T17:54:03.935Z,77487.31
2022-11-13T17:56:35.322Z,77468.25
2022-11-13T17:59:03.583Z,77466.13
2022-11-13T18:01:36.874Z,77470.38
2022-11-13T18:04:06.804Z,77480.94
2022-11-13T18:06:34.444Z,77493.66
2022-11-13T18:09:02.163Z,77491.53
2022-11-13T18:11:30.826Z,77489.41
2022-11-13T18:14:00.017Z,77489.41
2022-11-13T18:16:29.551Z,77478.84
2022-11-13T18:19:00.611Z,77476.72
2022-11-13T18:21:30.359Z,77476.72
2022-11-13T18:24:00.003Z,77464.00
2022-11-13T18:26:29.261Z,77455.53
2022-11-13T18:28:57.058Z,77442.84
2022-11-13T18:31:29.680Z,77436.50
2022-11-13T18:33:59.303Z,77438.59
2022-11-13T18:36:27.075Z,77442.84
2022-11-13T18:38:54.848Z,77440.72
2022-11-13T18:41:24.460Z,77430.13
2022-11-13T18:43:53.186Z,77430.13
2022-11-13T18:46:22.612Z,77447.06
2022-11-13T18:48:51.880Z,77459.78
2022-11-13T18:51:21.418Z,77459.78
2022-11-13T18:53:50.122Z,77453.44
2022-11-13T18:56:20.791Z,77461.91
2022-11-13T18:58:49.557Z,77455.53
2022-11-13T19:01:22.581Z,77466.13
2022-11-13T19:04:21.535Z,77461.91
2022-11-13T19:06:43.229Z,77470.38
2022-11-13T19:09:16.747Z,77466.13
2022-11-13T19:11:45.589Z,77468.25
2022-11-13T19:14:15.407Z,77470.38
2022-11-13T19:16:44.278Z,77461.91
2022-11-13T19:19:18.968Z,77457.66
2022-11-13T19:21:49.149Z,77468.25
2022-11-13T19:24:20.483Z,77459.78
2022-11-13T19:26:48.113Z,77447.06
2022-11-13T19:29:16.383Z,77442.84
2022-11-13T19:31:46.532Z,77438.59
2022-11-13T19:34:14.538Z,77442.84
2022-11-13T19:36:55.385Z,77447.06
2022-11-13T19:39:23.963Z,77457.66
2022-11-13T19:41:51.718Z,77461.91
2022-11-13T19:44:21.649Z,77464.00
2022-11-13T19:46:51.674Z,77464.00
2022-11-13T19:49:20.883Z,77453.44
2022-11-13T19:51:50.189Z,77447.06
2022-11-13T19:54:22.007Z,77466.13
2022-11-13T19:56:50.266Z,77459.78
2022-11-13T19:59:18.024Z,77468.25
2022-11-13T20:01:46.697Z,77455.53
2022-11-13T20:04:15.570Z,77447.06
2022-11-13T20:06:52.152Z,77447.06
2022-11-13T20:09:30.638Z,77438.59
2022-11-13T20:11:58.738Z,77432.25
2022-11-13T20:14:26.601Z,77432.25
2022-11-13T20:16:54.918Z,77434.38
2022-11-13T20:19:23.059Z,77442.84
2022-11-13T20:21:51.395Z,77438.59
2022-11-13T20:27:26.691Z,77444.97
2022-11-13T20:29:57.413Z,77447.06
2022-11-13T20:32:26.654Z,77464.00
2022-11-13T20:34:55.247Z,77459.78
2022-11-13T20:37:29.012Z,77461.91
2022-11-13T20:39:58.511Z,77470.38
2022-11-13T20:42:29.564Z,77480.94
2022-11-13T20:45:00.971Z,77485.19
2022-11-13T20:47:29.628Z,77487.31
2022-11-13T20:49:58.099Z,77489.41
2022-11-13T20:52:28.017Z,77480.94
2022-11-13T20:54:56.418Z,77483.06
2022-11-13T20:57:25.536Z,77476.72
2022-11-13T20:59:53.824Z,77472.47
2022-11-13T21:02:22.695Z,77466.13
2022-11-13T21:04:52.465Z,77476.72
2022-11-13T21:07:20.539Z,77483.06
2022-11-13T21:09:50.020Z,77478.84
2022-11-13T21:12:17.906Z,77472.47
2022-11-13T21:14:47.109Z,77474.59
2022-11-13T21:17:17.522Z,77472.47
2022-11-13T21:19:45.205Z,77472.47
2022-11-13T21:22:13.674Z,77472.47
2022-11-13T21:24:41.850Z,77457.66
2022-11-13T21:27:10.047Z,77464.00
2022-11-13T21:29:37.885Z,77468.25
2022-11-13T21:32:07.370Z,77472.47
2022-11-13T21:34:35.053Z,77466.13
2022-11-13T21:37:02.833Z,77451.31
2022-11-13T21:39:30.964Z,77455.53
2022-11-13T21:41:59.223Z,77455.53
2022-11-13T21:44:26.855Z,77464.00
2022-11-13T21:46:55.465Z,77466.13
2022-11-13T21:49:25.159Z,77459.78
2022-11-13T21:51:53.898Z,77468.25
2022-11-13T21:54:23.863Z,77461.91
2022-11-13T21:56:51.522Z,77470.38
2022-11-13T21:59:19.548Z,77468.25
2022-11-13T22:01:47.206Z,77472.47
2022-11-13T22:04:14.943Z,77461.91
2022-11-13T22:06:50.202Z,77455.53
2022-11-13T22:09:19.744Z,77442.84
2022-11-13T22:11:47.681Z,77447.06
2022-11-13T22:14:15.678Z,77468.25
2022-11-13T22:16:46.347Z,77478.84
2022-11-13T22:19:15.989Z,77476.72
2022-11-13T22:21:44.645Z,77472.47
2022-11-13T22:24:14.823Z,77468.25
2022-11-13T22:26:45.222Z,77468.25
2022-11-13T22:29:13.678Z,77466.13
2022-11-13T22:31:41.387Z,77466.13
2022-11-13T22:34:09.120Z,77485.19
2022-11-13T22:36:37.794Z,77478.84
2022-11-13T22:39:06.408Z,77485.19
2022-11-13T22:41:36.582Z,77480.94
2022-11-13T22:44:06.789Z,77489.41
2022-11-13T22:46:36.186Z,77480.94
2022-11-13T22:49:06.639Z,77472.47
2022-11-13T22:51:37.894Z,77472.47
2022-11-13T22:54:07.105Z,77468.25
2022-11-13T22:56:37.166Z,77451.31
2022-11-13T22:59:06.465Z,77447.06
2022-11-13T23:01:35.924Z,77444.97
2022-11-13T23:04:05.357Z,77459.78
2022-11-13T23:06:34.505Z,77476.72
2022-11-13T23:09:03.620Z,77485.19
2022-11-13T23:11:33.630Z,77504.25
2022-11-13T23:14:05.689Z,77506.38
2022-11-13T23:16:34.383Z,77504.25
2022-11-13T23:19:02.762Z,77502.13
2022-11-13T23:21:31.087Z,77502.13
2022-11-13T23:23:58.828Z,77502.13
2022-11-13T23:26:27.601Z,77489.41
2022-11-13T23:28:55.362Z,77485.19
2022-11-13T23:31:24.530Z,77493.66
2022-11-13T23:33:52.202Z,77485.19
2022-11-13T23:36:20.307Z,77474.59
2022-11-13T23:38:47.989Z,77472.47
2022-11-13T23:41:15.979Z,77478.84
2022-11-13T23:46:32.580Z,77497.88
2022-11-13T23:49:00.234Z,77497.88
2022-11-13T23:51:27.903Z,77493.66
2022-11-13T23:53:55.607Z,77495.78
2022-11-13T23:56:23.287Z,77497.88
2022-11-13T23:58:52.966Z,77506.38
